Time,TemperatureF,DewpointF,PressureIn,WindDirection,WindDirectionDegrees,WindSpeedMPH,WindSpeedGustMPH,Humidity,HourlyPrecipIn,Conditions,Clouds,dailyrainin,SolarRadiationWatts/m^2,SoftwareType,DateUTC
2013-06-28 00:00:00,69.0,69.0,29.56,WSW,248,7.0,9.0,100,-99.99,,,0.98,0.00,VWS V14.01,2013-06-28 04:00:00,
2013-06-28 00:04:00,69.0,69.0,29.56,WSW,248,5.0,6.0,100,-99.99,,,0.98,0.00,VWS V14.01,2013-06-28 04:04:00,
2013-06-28 00:09:00,69.0,69.0,29.56,WSW,248,6.0,6.0,100,-99.99,,,0.98,0.00,VWS V14.01,2013-06-28 04:09:00,
2013-06-28 00:14:00,70.0,70.0,29.56,WSW,248,5.0,5.0,100,-99.99,,,0.98,0.00,VWS V14.01,2013-06-28 04:14:00,
2013-06-28 00:19:00,70.0,70.0,29.56,SW,225,5.0,6.0,100,-99.99,,,0.98,0.00,VWS V14.01,2013-06-28 04:19:00,
2013-06-28 00:24:00,70.0,70.0,29.56,SSW,202,4.0,6.0,100,-99.99,,,0.98,0.00,VWS V14.01,2013-06-28 04:24:00,
2013-06-28 00:29:00,70.0,70.0,29.56,SSW,202,3.0,5.0,100,-99.99,,,0.98,0.00,VWS V14.01,2013-06-28 04:29:00,
2013-06-28 00:34:00,70.0,70.0,29.56,SW,225,7.0,8.0,100,-99.99,,,0.98,0.00,VWS V14.01,2013-06-28 04:34:00,
2013-06-28 00:39:00,70.0,70.0,29.56,SSW,202,10.0,10.0,100,-99.99,,,0.98,0.00,VWS V14.01,2013-06-28 04:39:00,
2013-06-28 00:44:00,70.0,70.0,29.56,SW,225,4.0,6.0,100,-99.99,,,0.98,0.00,VWS V14.01,2013-06-28 04:44:00,
2013-06-28 00:49:00,70.0,70.0,29.56,West,270,5.0,8.0,100,-99.99,,,0.98,0.00,VWS V14.01,2013-06-28 04:49:00,
2013-06-28 00:54:00,69.0,69.0,29.56,SW,225,6.0,6.0,100,-99.99,,,0.98,0.00,VWS V14.01,2013-06-28 04:54:00,
2013-06-28 00:59:00,69.0,69.0,29.56,SW,225,7.0,8.0,100,-99.99,,,0.98,0.00,VWS V14.01,2013-06-28 04:59:00,
2013-06-28 01:04:00,69.0,69.0,29.56,SW,225,7.0,8.0,100,-99.99,,,0.98,0.00,VWS V14.01,2013-06-28 05:04:00,
2013-06-28 01:09:00,69.0,69.0,29.57,SW,225,7.0,11.0,100,-99.99,,,0.00,0.00,VWS V14.01,2013-06-28 05:09:00,
2013-06-28 01:14:00,69.0,69.0,29.57,SW,225,6.0,7.0,100,-99.99,,,0.00,0.00,VWS V14.01,2013-06-28 05:14:00,
2013-06-28 01:19:00,69.0,69.0,29.57,SW,225,6.0,8.0,100,-99.99,,,0.00,0.00,VWS V14.01,2013-06-28 05:19:00,
2013-06-28 01:24:00,69.0,69.0,29.57,SSW,202,10.0,13.0,100,-99.99,,,0.00,0.00,VWS V14.01,2013-06-28 05:24:00,
2013-06-28 01:29:00,69.0,69.0,29.57,SW,225,7.0,7.0,100,-99.99,,,0.00,0.00,VWS V14.01,2013-06-28 05:29:00,
2013-06-28 01:34:00,69.0,69.0,29.57,WSW,248,4.0,5.0,100,-99.99,,,0.00,0.00,VWS V14.01,2013-06-28 05:34:00,
2013-06-28 01:39:00,69.0,69.0,29.57,West,270,5.0,5.0,100,-99.99,,,0.00,0.00,VWS V14.01,2013-06-28 05:39:00,
2013-06-28 01:44:00,69.0,69.0,29.56,SW,225,6.0,6.0,100,-99.99,,,0.00,0.00,VWS V14.01,2013-06-28 05:44:00,
2013-06-28 01:49:00,69.0,69.0,29.56,SSW,202,6.0,6.0,100,-99.99,,,0.00,0.00,VWS V14.01,2013-06-28 05:49:00,
2013-06-28 01:54:00,69.0,69.0,29.56,SW,225,3.0,4.0,100,-99.99,,,0.00,0.00,VWS V14.01,2013-06-28 05:54:00,
2013-06-28 01:59:00,69.0,69.0,29.56,SSW,202,5.0,7.0,100,-99.99,,,0.00,0.00,VWS V14.01,2013-06-28 05:59:00,
2013-06-28 02:04:00,69.0,69.0,29.57,SW,225,3.0,3.0,100,-99.99,,,0.00,0.00,VWS V14.01,2013-06-28 06:04:00,
2013-06-28 02:09:00,69.0,69.0,29.56,SW,225,4.0,5.0,100,-99.99,,,0.00,0.00,VWS V14.01,2013-06-28 06:09:00,
2013-06-28 02:14:00,69.0,69.0,29.57,SW,225,3.0,4.0,100,-99.99,,,0.00,0.00,VWS V14.01,2013-06-28 06:14:00,
2013-06-28 02:19:00,69.0,69.0,29.56,ESE,112,2.0,2.0,100,-99.99,,,0.00,0.00,VWS V14.01,2013-06-28 06:19:00,
2013-06-28 02:24:00,69.0,69.0,29.56,SE,135,1.0,1.0,100,-99.99,,,0.00,0.00,VWS V14.01,2013-06-28 06:24:00,
2013-06-28 02:29:00,69.0,69.0,29.56,SSE,158,3.0,3.0,100,-99.99,,,0.00,0.00,VWS V14.01,2013-06-28 06:29:00,
2013-06-28 02:34:00,69.0,69.0,29.56,SSE,158,2.0,3.0,100,-99.99,,,0.00,0.00,VWS V14.01,2013-06-28 06:34:00,
2013-06-28 02:39:00,69.0,69.0,29.56,South,180,4.0,4.0,100,-99.99,,,0.00,0.00,VWS V14.01,2013-06-28 06:39:00,
2013-06-28 02:44:00,69.0,69.0,29.56,SW,225,2.0,2.0,100,-99.99,,,0.00,0.00,VWS V14.01,2013-06-28 06:44:00,
2013-06-28 02:49:00,69.0,69.0,29.56,SW,225,4.0,6.0,100,-99.99,,,0.00,0.00,VWS V14.01,2013-06-28 06:49:00,
2013-06-28 02:54:00,69.0,69.0,29.56,SSW,202,5.0,6.0,100,-99.99,,,0.00,0.00,VWS V14.01,2013-06-28 06:54:00,
2013-06-28 02:59:00,69.0,69.0,29.56,SW,225,3.0,3.0,100,-99.99,,,0.00,0.00,VWS V14.01,2013-06-28 06:59:00,
2013-06-28 03:04:00,69.0,69.0,29.56,SSE,158,1.0,1.0,100,-99.99,,,0.00,0.00,VWS V14.01,2013-06-28 07:04:00,
2013-06-28 03:09:00,69.0,69.0,29.56,South,180,2.0,2.0,100,-99.99,,,0.00,0.00,VWS V14.01,2013-06-28 07:09:00,
2013-06-28 03:14:00,69.0,69.0,29.56,South,180,2.0,3.0,100,-99.99,,,0.00,0.00,VWS V14.01,2013-06-28 07:14:00,
2013-06-28 03:19:00,69.0,69.0,29.56,SSE,158,4.0,4.0,100,-99.99,,,0.00,0.00,VWS V14.01,2013-06-28 07:19:00,
2013-06-28 03:24:00,69.0,69.0,29.55,SSE,158,5.0,5.0,100,-99.99,,,0.00,0.00,VWS V14.01,2013-06-28 07:24:00,
2013-06-28 03:29:00,69.0,69.0,29.55,SSE,158,3.0,3.0,100,-99.99,,,0.00,0.00,VWS V14.01,2013-06-28 07:29:00,
2013-06-28 03:34:00,69.0,69.0,29.56,SW,225,2.0,3.0,100,-99.99,,,0.00,0.00,VWS V14.01,2013-06-28 07:34:00,
2013-06-28 03:39:00,69.0,69.0,29.56,SW,225,6.0,6.0,100,-99.99,,,0.00,0.00,VWS V14.01,2013-06-28 07:39:00,
2013-06-28 03:44:00,69.0,69.0,29.56,SSW,202,6.0,6.0,100,-99.99,,,0.00,0.00,VWS V14.01,2013-06-28 07:44:00,
2013-06-28 03:49:00,68.0,68.0,29.56,SW,225,4.0,4.0,100,-99.99,,,0.00,0.00,VWS V14.01,2013-06-28 07:49:00,
2013-06-28 03:54:00,68.0,68.0,29.56,South,180,2.0,3.0,100,-99.99,,,0.00,0.00,VWS V14.01,2013-06-28 07:54:00,
2013-06-28 03:59:00,68.0,68.0,29.56,SSW,202,3.0,4.0,100,-99.99,,,0.00,0.00,VWS V14.01,2013-06-28 07:59:00,
2013-06-28 04:04:00,68.0,68.0,29.56,SSW,202,3.0,4.0,100,-99.99,,,0.00,0.00,VWS V14.01,2013-06-28 08:04:00,
2013-06-28 04:09:00,68.0,68.0,29.56,South,180,1.0,2.0,100,-99.99,,,0.00,0.00,VWS V14.01,2013-06-28 08:09:00,
2013-06-28 04:14:00,68.0,68.0,29.56,SW,225,2.0,2.0,100,-99.99,,,0.00,0.00,VWS V14.01,2013-06-28 08:14:00,
2013-06-28 04:19:00,68.0,68.0,29.56,West,270,2.0,3.0,100,-99.99,,,0.00,0.00,VWS V14.01,2013-06-28 08:19:00,
2013-06-28 04:24:00,68.0,68.0,29.56,SW,225,3.0,3.0,100,-99.99,,,0.00,0.00,VWS V14.01,2013-06-28 08:24:00,
2013-06-28 04:29:00,68.0,68.0,29.56,SW,225,3.0,4.0,100,-99.99,,,0.00,0.00,VWS V14.01,2013-06-28 08:29:00,
2013-06-28 04:34:00,68.0,68.0,29.57,SW,225,3.0,3.0,100,-99.99,,,0.00,0.00,VWS V14.01,2013-06-28 08:34:00,
2013-06-28 04:39:00,68.0,68.0,29.57,SW,225,4.0,4.0,100,-99.99,,,0.00,0.00,VWS V14.01,2013-06-28 08:39:00,
2013-06-28 04:44:00,68.0,68.0,29.56,WSW,248,5.0,6.0,100,-99.99,,,0.00,0.00,VWS V14.01,2013-06-28 08:44:00,
2013-06-28 04:49:00,68.0,68.0,29.56,WSW,248,4.0,5.0,100,-99.99,,,0.00,0.00,VWS V14.01,2013-06-28 08:49:00,
2013-06-28 04:54:00,68.0,68.0,29.56,SSW,202,3.0,4.0,100,-99.99,,,0.00,0.00,VWS V14.01,2013-06-28 08:54:00,
2013-06-28 04:59:00,68.0,68.0,29.57,SSW,202,5.0,6.0,100,-99.99,,,0.00,0.00,VWS V14.01,2013-06-28 08:59:00,
2013-06-28 05:04:00,68.0,68.0,29.57,WSW,248,2.0,2.0,100,-99.99,,,0.00,0.00,VWS V14.01,2013-06-28 09:04:00,
2013-06-28 05:09:00,68.0,68.0,29.58,ENE,68,1.0,1.0,100,-99.99,,,0.00,0.00,VWS V14.01,2013-06-28 09:09:00,
2013-06-28 05:14:00,68.0,68.0,29.58,SW,225,2.0,2.0,100,-99.99,,,0.00,0.00,VWS V14.01,2013-06-28 09:14:00,
2013-06-28 05:19:00,68.0,68.0,29.58,SW,225,2.0,2.0,100,-99.99,,,0.00,0.00,VWS V14.01,2013-06-28 09:19:00,
2013-06-28 05:24:00,68.0,68.0,29.58,SW,225,2.0,3.0,100,-99.99,,,0.00,0.00,VWS V14.01,2013-06-28 09:24:00,
2013-06-28 05:29:00,68.0,68.0,29.58,SW,225,4.0,4.0,100,-99.99,,,0.00,0.00,VWS V14.01,2013-06-28 09:29:00,
2013-06-28 05:34:00,68.0,68.0,29.58,SW,225,2.0,2.0,100,-99.99,,,0.00,0.00,VWS V14.01,2013-06-28 09:34:00,
2013-06-28 05:39:00,68.0,68.0,29.57,WSW,248,2.0,2.0,100,-99.99,,,0.00,0.00,VWS V14.01,2013-06-28 09:39:00,
2013-06-28 05:44:00,68.0,68.0,29.57,SW,225,4.0,4.0,100,-99.99,,,0.00,10.00,VWS V14.01,2013-06-28 09:44:00,
2013-06-28 05:49:00,68.0,68.0,29.57,SW,225,4.0,4.0,100,-99.99,,,0.00,10.00,VWS V14.01,2013-06-28 09:49:00,
2013-06-28 05:54:00,68.0,68.0,29.58,WSW,248,1.0,2.0,100,-99.99,,,0.00,10.00,VWS V14.01,2013-06-28 09:54:00,
2013-06-28 05:59:00,68.0,68.0,29.58,SW,225,4.0,4.0,100,-99.99,,,0.00,20.00,VWS V14.01,2013-06-28 09:59:00,
2013-06-28 06:04:00,68.0,68.0,29.58,SSW,202,6.0,7.0,100,-99.99,,,0.00,60.00,VWS V14.01,2013-06-28 10:04:00,
2013-06-28 06:09:00,68.0,68.0,29.58,SW,225,6.0,6.0,100,-99.99,,,0.00,10.00,VWS V14.01,2013-06-28 10:09:00,
2013-06-28 06:14:00,68.0,68.0,29.58,SW,225,6.0,8.0,100,-99.99,,,0.00,20.00,VWS V14.01,2013-06-28 10:14:00,
2013-06-28 06:19:00,68.0,68.0,29.59,WSW,248,7.0,7.0,100,-99.99,,,0.00,20.00,VWS V14.01,2013-06-28 10:19:00,
2013-06-28 06:24:00,68.0,68.0,29.59,SSW,202,5.0,5.0,100,-99.99,,,0.00,20.00,VWS V14.01,2013-06-28 10:24:00,
2013-06-28 06:29:00,68.0,68.0,29.59,WSW,248,6.0,7.0,100,-99.99,,,0.00,20.00,VWS V14.01,2013-06-28 10:29:00,
2013-06-28 06:34:00,68.0,68.0,29.59,SW,225,4.0,5.0,100,-99.99,,,0.00,20.00,VWS V14.01,2013-06-28 10:34:00,
2013-06-28 06:39:00,68.0,68.0,29.60,SW,225,4.0,4.0,100,-99.99,,,0.00,40.00,VWS V14.01,2013-06-28 10:39:00,
2013-06-28 06:44:00,68.0,68.0,29.59,SW,225,6.0,6.0,100,-99.99,,,0.00,50.00,VWS V14.01,2013-06-28 10:44:00,
2013-06-28 06:49:00,68.0,68.0,29.59,South,180,2.0,2.0,100,-99.99,,,0.00,60.00,VWS V14.01,2013-06-28 10:49:00,
2013-06-28 06:54:00,68.0,68.0,29.59,SSE,158,1.0,2.0,100,-99.99,,,0.00,90.00,VWS V14.01,2013-06-28 10:54:00,
2013-06-28 06:59:00,68.0,68.0,29.59,SSW,202,2.0,2.0,100,-99.99,,,0.00,220.00,VWS V14.01,2013-06-28 10:59:00,
2013-06-28 07:04:00,69.0,69.0,29.59,SSW,202,3.0,4.0,100,-99.99,,,0.00,240.00,VWS V14.01,2013-06-28 11:04:00,
2013-06-28 07:09:00,69.0,68.7,29.59,SSW,202,3.0,3.0,99,-99.99,,,0.00,70.00,VWS V14.01,2013-06-28 11:09:00,
2013-06-28 07:14:00,69.0,68.7,29.59,SW,225,2.0,3.0,99,-99.99,,,0.00,220.00,VWS V14.01,2013-06-28 11:14:00,
2013-06-28 07:19:00,69.0,68.4,29.58,SW,225,3.0,3.0,98,-99.99,,,0.00,240.00,VWS V14.01,2013-06-28 11:19:00,
2013-06-28 07:24:00,69.0,68.4,29.58,SW,225,3.0,3.0,98,-99.99,,,0.00,150.00,VWS V14.01,2013-06-28 11:24:00,
2013-06-28 07:29:00,69.0,68.1,29.58,WSW,248,3.0,4.0,97,-99.99,,,0.00,250.00,VWS V14.01,2013-06-28 11:29:00,
2013-06-28 07:34:00,69.0,68.1,29.59,South,180,3.0,4.0,97,-99.99,,,0.00,270.00,VWS V14.01,2013-06-28 11:34:00,
2013-06-28 07:39:00,69.0,68.1,29.59,SSW,202,5.0,7.0,97,-99.99,,,0.00,290.00,VWS V14.01,2013-06-28 11:39:00,
2013-06-28 07:44:00,70.0,69.1,29.58,SW,225,3.0,3.0,97,-99.99,,,0.00,360.00,VWS V14.01,2013-06-28 11:44:00,
2013-06-28 07:49:00,70.0,69.1,29.59,South,180,3.0,4.0,97,-99.99,,,0.00,380.00,VWS V14.01,2013-06-28 11:49:00,
2013-06-28 07:54:00,70.0,68.8,29.59,SSE,158,1.0,5.0,96,-99.99,,,0.00,380.00,VWS V14.01,2013-06-28 11:54:00,
2013-06-28 07:59:00,70.0,68.5,29.58,WNW,292,4.0,4.0,95,-99.99,,,0.00,100.00,VWS V14.01,2013-06-28 11:59:00,
2013-06-28 08:04:00,71.0,69.5,29.58,SW,225,2.0,4.0,95,-99.99,,,0.00,100.00,VWS V14.01,2013-06-28 12:04:00,
2013-06-28 08:09:00,70.0,68.2,29.59,SW,225,5.0,5.0,94,-99.99,,,0.00,190.00,VWS V14.01,2013-06-28 12:09:00,
2013-06-28 08:14:00,70.0,68.2,29.58,WSW,248,6.0,6.0,94,-99.99,,,0.00,140.00,VWS V14.01,2013-06-28 12:14:00,
2013-06-28 08:19:00,70.0,68.5,29.58,WSW,248,6.0,6.0,95,-99.99,,,0.00,100.00,VWS V14.01,2013-06-28 12:19:00,
2013-06-28 08:24:00,70.0,68.5,29.59,SSW,202,6.0,6.0,95,-99.99,,,0.00,120.00,VWS V14.01,2013-06-28 12:24:00,
2013-06-28 08:29:00,70.0,68.2,29.59,SSW,202,4.0,7.0,94,-99.99,,,0.00,100.00,VWS V14.01,2013-06-28 12:29:00,
2013-06-28 08:34:00,70.0,68.2,29.59,SSW,202,2.0,8.0,94,-99.99,,,0.00,100.00,VWS V14.01,2013-06-28 12:34:00,
2013-06-28 08:39:00,70.0,68.2,29.59,SW,225,3.0,11.0,94,-99.99,,,0.00,190.00,VWS V14.01,2013-06-28 12:39:00,
2013-06-28 08:44:00,71.0,68.9,29.59,WSW,248,3.0,3.0,93,-99.99,,,0.00,460.00,VWS V14.01,2013-06-28 12:44:00,
2013-06-28 08:49:00,71.0,68.9,29.58,SW,225,7.0,7.0,93,-99.99,,,0.00,440.00,VWS V14.01,2013-06-28 12:49:00,
2013-06-28 08:54:00,71.0,68.2,29.58,WSW,248,7.0,8.0,91,-99.99,,,0.00,470.00,VWS V14.01,2013-06-28 12:54:00,
2013-06-28 08:59:00,72.0,69.2,29.58,SW,225,2.0,5.0,91,-99.99,,,0.00,560.00,VWS V14.01,2013-06-28 12:59:00,
2013-06-28 09:04:00,72.0,68.6,29.57,South,180,4.0,10.0,89,-99.99,,,0.00,550.00,VWS V14.01,2013-06-28 13:04:00,
2013-06-28 09:09:00,72.0,67.9,29.57,SSW,202,3.0,7.0,87,-99.99,,,0.00,520.00,VWS V14.01,2013-06-28 13:09:00,
2013-06-28 09:14:00,72.0,67.9,29.57,SW,225,8.0,11.0,87,-99.99,,,0.00,560.00,VWS V14.01,2013-06-28 13:14:00,
2013-06-28 09:19:00,72.0,67.9,29.57,SW,225,7.0,10.0,87,-99.99,,,0.00,590.00,VWS V14.01,2013-06-28 13:19:00,
2013-06-28 09:24:00,72.0,67.9,29.57,ESE,112,4.0,6.0,87,-99.99,,,0.00,570.00,VWS V14.01,2013-06-28 13:24:00,
2013-06-28 09:29:00,73.0,68.6,29.57,WSW,248,5.0,7.0,86,-99.99,,,0.00,240.00,VWS V14.01,2013-06-28 13:29:00,
2013-06-28 09:34:00,73.0,68.2,29.57,SW,225,5.0,12.0,85,-99.99,,,0.00,210.00,VWS V14.01,2013-06-28 13:34:00,
2013-06-28 09:39:00,73.0,67.5,29.57,SSW,202,5.0,11.0,83,-99.99,,,0.00,220.00,VWS V14.01,2013-06-28 13:39:00,
2013-06-28 09:44:00,73.0,67.5,29.57,SSW,202,7.0,9.0,83,-99.99,,,0.00,220.00,VWS V14.01,2013-06-28 13:44:00,
2013-06-28 09:49:00,73.0,67.9,29.57,WSW,248,5.0,9.0,84,-99.99,,,0.00,210.00,VWS V14.01,2013-06-28 13:49:00,
2013-06-28 09:54:00,74.0,68.9,29.57,SW,225,5.0,7.0,84,-99.99,,,0.00,690.00,VWS V14.01,2013-06-28 13:54:00,
2013-06-28 09:59:00,74.0,68.2,29.57,South,180,2.0,6.0,82,-99.99,,,0.00,240.00,VWS V14.01,2013-06-28 13:59:00,
2013-06-28 10:04:00,74.0,68.2,29.57,SW,225,4.0,5.0,82,-99.99,,,0.00,140.00,VWS V14.01,2013-06-28 14:04:00,
2013-06-28 10:09:00,74.0,67.8,29.57,WSW,248,6.0,7.0,81,-99.99,,,0.00,100.00,VWS V14.01,2013-06-28 14:09:00,
2013-06-28 10:14:00,73.0,67.5,29.57,SW,225,6.0,8.0,83,-99.99,,,0.00,100.00,VWS V14.01,2013-06-28 14:14:00,
2013-06-28 10:19:00,73.0,67.5,29.57,SW,225,6.0,8.0,83,-99.99,,,0.00,120.00,VWS V14.01,2013-06-28 14:19:00,
2013-06-28 10:24:00,73.0,68.2,29.57,SW,225,7.0,7.0,85,-99.99,,,0.00,80.00,VWS V14.01,2013-06-28 14:24:00,
2013-06-28 10:29:00,73.0,68.2,29.57,SSW,202,6.0,7.0,85,-99.99,,,0.00,110.00,VWS V14.01,2013-06-28 14:29:00,
2013-06-28 10:34:00,73.0,68.6,29.57,SW,225,5.0,6.0,86,-99.99,,,0.00,160.00,VWS V14.01,2013-06-28 14:34:00,
2013-06-28 10:39:00,73.0,68.6,29.57,SW,225,5.0,6.0,86,-99.99,,,0.00,310.00,VWS V14.01,2013-06-28 14:39:00,
2013-06-28 10:44:00,73.0,67.9,29.57,SW,225,1.0,1.0,84,-99.99,,,0.00,200.00,VWS V14.01,2013-06-28 14:44:00,
2013-06-28 10:49:00,73.0,68.2,29.57,SSW,202,1.0,1.0,85,-99.99,,,0.00,190.00,VWS V14.01,2013-06-28 14:49:00,
2013-06-28 10:54:00,73.0,67.9,29.57,WSW,248,5.0,6.0,84,-99.99,,,0.00,190.00,VWS V14.01,2013-06-28 14:54:00,
2013-06-28 10:59:00,74.0,68.9,29.57,WSW,248,5.0,6.0,84,-99.99,,,0.00,150.00,VWS V14.01,2013-06-28 14:59:00,
2013-06-28 11:04:00,74.0,68.9,29.57,WSW,248,4.0,4.0,84,-99.99,,,0.00,160.00,VWS V14.01,2013-06-28 15:04:00,
2013-06-28 11:09:00,74.0,68.9,29.57,SW,225,6.0,6.0,84,-99.99,,,0.00,210.00,VWS V14.01,2013-06-28 15:09:00,
2013-06-28 11:14:00,74.0,68.9,29.57,WSW,248,1.0,1.0,84,-99.99,,,0.00,680.00,VWS V14.01,2013-06-28 15:14:00,
2013-06-28 11:19:00,75.0,69.1,29.57,WSW,248,4.0,4.0,82,-99.99,,,0.00,250.00,VWS V14.01,2013-06-28 15:19:00,
2013-06-28 11:24:00,75.0,68.8,29.57,SSW,202,3.0,6.0,81,-99.99,,,0.00,180.00,VWS V14.01,2013-06-28 15:24:00,
2013-06-28 11:29:00,75.0,68.8,29.57,SW,225,5.0,5.0,81,-99.99,,,0.00,250.00,VWS V14.01,2013-06-28 15:29:00,
2013-06-28 11:34:00,75.0,68.8,29.57,WSW,248,4.0,4.0,81,-99.99,,,0.00,340.00,VWS V14.01,2013-06-28 15:34:00,
2013-06-28 11:39:00,75.0,68.8,29.57,SSW,202,4.0,6.0,81,-99.99,,,0.00,220.00,VWS V14.01,2013-06-28 15:39:00,
2013-06-28 11:44:00,75.0,68.4,29.57,SW,225,4.0,7.0,80,-99.99,,,0.00,150.00,VWS V14.01,2013-06-28 15:44:00,
2013-06-28 11:49:00,75.0,68.8,29.57,WSW,248,5.0,6.0,81,-99.99,,,0.00,80.00,VWS V14.01,2013-06-28 15:49:00,
2013-06-28 11:54:00,74.0,68.2,29.57,WSW,248,4.0,7.0,82,-99.99,,,0.00,180.00,VWS V14.01,2013-06-28 15:54:00,
2013-06-28 11:59:00,74.0,68.2,29.57,West,270,5.0,8.0,82,-99.99,,,0.00,240.00,VWS V14.01,2013-06-28 15:59:00,
2013-06-28 12:04:00,74.0,68.2,29.57,West,270,5.0,6.0,82,-99.99,,,0.00,190.00,VWS V14.01,2013-06-28 16:04:00,
2013-06-28 12:09:00,75.0,69.1,29.57,West,270,5.0,6.0,82,-99.99,,,0.00,140.00,VWS V14.01,2013-06-28 16:09:00,
2013-06-28 12:14:00,75.0,69.1,29.57,WNW,292,5.0,6.0,82,-99.99,,,0.00,120.00,VWS V14.01,2013-06-28 16:14:00,
2013-06-28 12:19:00,75.0,69.1,29.56,West,270,4.0,4.0,82,-99.99,,,0.00,170.00,VWS V14.01,2013-06-28 16:19:00,
2013-06-28 12:24:00,75.0,69.1,29.56,WSW,248,5.0,5.0,82,-99.99,,,0.00,300.00,VWS V14.01,2013-06-28 16:24:00,
2013-06-28 12:29:00,75.0,69.1,29.56,WSW,248,2.0,3.0,82,-99.99,,,0.00,430.00,VWS V14.01,2013-06-28 16:29:00,
2013-06-28 12:34:00,75.0,68.4,29.56,SSE,158,2.0,3.0,80,-99.99,,,0.00,460.00,VWS V14.01,2013-06-28 16:34:00,
2013-06-28 12:39:00,76.0,69.0,29.56,SSW,202,5.0,6.0,79,-99.99,,,0.00,510.00,VWS V14.01,2013-06-28 16:39:00,
2013-06-28 12:44:00,77.0,69.6,29.55,NNW,338,2.0,3.0,78,-99.99,,,0.00,410.00,VWS V14.01,2013-06-28 16:44:00,
2013-06-28 12:49:00,77.0,69.2,29.56,ESE,112,1.0,2.0,77,-99.99,,,0.00,490.00,VWS V14.01,2013-06-28 16:49:00,
2013-06-28 12:54:00,77.0,68.5,29.56,ENE,68,2.0,3.0,75,-99.99,,,0.00,440.00,VWS V14.01,2013-06-28 16:54:00,
2013-06-28 12:59:00,77.0,68.1,29.55,ESE,112,4.0,6.0,74,-99.99,,,0.00,470.00,VWS V14.01,2013-06-28 16:59:00,
2013-06-28 13:04:00,78.0,69.1,29.55,ENE,68,2.0,3.0,74,-99.99,,,0.00,280.00,VWS V14.01,2013-06-28 17:04:00,
2013-06-28 13:09:00,78.0,69.1,29.55,SSE,158,1.0,1.0,74,-99.99,,,0.00,300.00,VWS V14.01,2013-06-28 17:09:00,
2013-06-28 13:14:00,78.0,69.1,29.55,East,90,3.0,4.0,74,-99.99,,,0.00,1040.00,VWS V14.01,2013-06-28 17:14:00,
2013-06-28 13:19:00,78.0,69.4,29.55,ESE,112,7.0,8.0,75,-99.99,,,0.00,520.00,VWS V14.01,2013-06-28 17:19:00,
2013-06-28 13:24:00,78.0,67.8,29.55,SE,135,5.0,8.0,71,-99.99,,,0.00,340.00,VWS V14.01,2013-06-28 17:24:00,
2013-06-28 13:29:00,78.0,68.7,29.55,SE,135,8.0,9.0,73,-99.99,,,0.00,640.00,VWS V14.01,2013-06-28 17:29:00,
2013-06-28 13:34:00,78.0,67.8,29.55,SE,135,4.0,5.0,71,-99.99,,,0.00,280.00,VWS V14.01,2013-06-28 17:34:00,
2013-06-28 13:39:00,78.0,67.4,29.55,SSE,158,7.0,8.0,70,-99.99,,,0.00,750.00,VWS V14.01,2013-06-28 17:39:00,
2013-06-28 13:44:00,78.0,67.8,29.54,ESE,112,5.0,5.0,71,-99.99,,,0.00,420.00,VWS V14.01,2013-06-28 17:44:00,
2013-06-28 13:49:00,79.0,68.4,29.55,ENE,68,4.0,5.0,70,-99.99,,,0.00,430.00,VWS V14.01,2013-06-28 17:49:00,
2013-06-28 13:54:00,79.0,68.0,29.55,SSE,158,4.0,6.0,69,-99.99,,,0.00,510.00,VWS V14.01,2013-06-28 17:54:00,
2013-06-28 13:59:00,79.0,67.6,29.55,SSE,158,2.0,4.0,68,-99.99,,,0.00,410.00,VWS V14.01,2013-06-28 17:59:00,
2013-06-28 14:04:00,79.0,67.6,29.54,SSE,158,9.0,10.0,68,-99.99,,,0.00,370.00,VWS V14.01,2013-06-28 18:04:00,
2013-06-28 14:09:00,78.0,66.6,29.54,SSE,158,10.0,11.0,68,-99.99,,,0.00,420.00,VWS V14.01,2013-06-28 18:09:00,
2013-06-28 14:14:00,78.0,66.6,29.54,SSE,158,6.0,6.0,68,-99.99,,,0.00,410.00,VWS V14.01,2013-06-28 18:14:00,
2013-06-28 14:19:00,79.0,68.0,29.54,SE,135,4.0,6.0,69,-99.99,,,0.00,840.00,VWS V14.01,2013-06-28 18:19:00,
2013-06-28 14:24:00,80.0,68.1,29.54,ESE,112,7.0,9.0,67,-99.99,,,0.00,820.00,VWS V14.01,2013-06-28 18:24:00,
2013-06-28 14:29:00,80.0,67.6,29.53,ESE,112,4.0,6.0,66,-99.99,,,0.00,770.00,VWS V14.01,2013-06-28 18:29:00,
2013-06-28 14:34:00,81.0,67.7,29.53,SSE,158,8.0,8.0,64,-99.99,,,0.00,760.00,VWS V14.01,2013-06-28 18:34:00,
2013-06-28 14:39:00,80.0,66.7,29.52,SSE,158,9.0,10.0,64,-99.99,,,0.00,500.00,VWS V14.01,2013-06-28 18:39:00,
2013-06-28 14:44:00,81.0,67.7,29.52,SE,135,10.0,10.0,64,-99.99,,,0.00,860.00,VWS V14.01,2013-06-28 18:44:00,
2013-06-28 14:49:00,81.0,67.2,29.52,East,90,5.0,6.0,63,-99.99,,,0.00,240.00,VWS V14.01,2013-06-28 18:49:00,
2013-06-28 14:54:00,81.0,67.2,29.52,ESE,112,3.0,6.0,63,-99.99,,,0.00,310.00,VWS V14.01,2013-06-28 18:54:00,
2013-06-28 14:59:00,80.0,66.3,29.51,SSE,158,4.0,9.0,63,-99.99,,,0.00,300.00,VWS V14.01,2013-06-28 18:59:00,
2013-06-28 15:04:00,80.0,66.7,29.51,SE,135,8.0,9.0,64,-99.99,,,0.00,270.00,VWS V14.01,2013-06-28 19:04:00,
2013-06-28 15:09:00,80.0,66.7,29.51,SSE,158,6.0,7.0,64,-99.99,,,0.00,220.00,VWS V14.01,2013-06-28 19:09:00,
2013-06-28 15:14:00,80.0,66.7,29.51,SE,135,7.0,9.0,64,-99.99,,,0.00,230.00,VWS V14.01,2013-06-28 19:14:00,
2013-06-28 15:19:00,79.0,66.2,29.51,SE,135,7.0,11.0,65,-99.99,,,0.00,200.00,VWS V14.01,2013-06-28 19:19:00,
2013-06-28 15:21:00,79.0,66.2,29.51,SE,135,5.0,12.0,65,-99.99,,,0.00,190.00,VWS V14.01,2013-06-28 19:21:00,
2013-06-28 15:26:00,80.0,67.6,29.52,SSE,158,7.0,10.0,66,-99.99,,,0.00,170.00,VWS V14.01,2013-06-28 19:26:00,
2013-06-28 15:31:00,80.0,67.6,29.51,SE,135,4.0,4.0,66,-99.99,,,0.00,190.00,VWS V14.01,2013-06-28 19:31:00,
2013-06-28 15:36:00,79.0,66.7,29.50,SSE,158,6.0,9.0,66,-99.99,,,0.00,190.00,VWS V14.01,2013-06-28 19:36:00,
2013-06-28 15:41:00,79.0,67.1,29.50,SSE,158,7.0,9.0,67,-99.99,,,0.00,180.00,VWS V14.01,2013-06-28 19:41:00,